createdAt,value
2018-07-21T00:00:38.963Z,1006.38
2018-07-21T00:01:38.956Z,1006.43
2018-07-21T00:02:38.955Z,1006.44
2018-07-21T00:03:38.957Z,1006.38
2018-07-21T00:04:38.962Z,1006.42
2018-07-21T00:05:38.963Z,1006.36
2018-07-21T00:06:38.959Z,1006.37
2018-07-21T00:07:38.965Z,1006.39
2018-07-21T00:08:38.963Z,1006.36
2018-07-21T00:09:38.964Z,1006.35
2018-07-21T00:10:38.969Z,1006.36
2018-07-21T00:11:38.971Z,1006.36
2018-07-21T00:12:38.973Z,1006.35
2018-07-21T00:13:38.974Z,1006.36
2018-07-21T00:14:38.971Z,1006.35
2018-07-21T00:15:38.972Z,1006.40
2018-07-21T00:16:38.977Z,1006.36
2018-07-21T00:17:38.975Z,1006.34
2018-07-21T00:18:38.979Z,1006.30
2018-07-21T00:19:38.980Z,1006.32
2018-07-21T00:20:38.977Z,1006.29
2018-07-21T00:21:38.979Z,1006.27
2018-07-21T00:22:38.984Z,1006.27
2018-07-21T00:23:38.988Z,1006.25
2018-07-21T00:24:38.990Z,1006.25
2018-07-21T00:25:38.990Z,1006.25
2018-07-21T00:26:38.987Z,1006.25
2018-07-21T00:27:38.985Z,1006.27
2018-07-21T00:28:38.987Z,1006.25
2018-07-21T00:29:38.987Z,1006.29
2018-07-21T00:30:38.996Z,1006.26
2018-07-21T00:31:38.994Z,1006.22
2018-07-21T00:32:38.995Z,1006.19
2018-07-21T00:33:38.995Z,1006.15
2018-07-21T00:34:38.995Z,1006.14
2018-07-21T00:35:38.996Z,1006.09
2018-07-21T00:36:38.999Z,1006.06
2018-07-21T00:37:39.001Z,1006.09
2018-07-21T00:38:38.999Z,1006.04
2018-07-21T00:39:39.001Z,1006.04
2018-07-21T00:40:38.998Z,1006.04
2018-07-21T00:41:38.998Z,1006.03
2018-07-21T00:42:39.006Z,1006.05
2018-07-21T00:43:39.006Z,1006.03
2018-07-21T00:44:39.006Z,1006.05
2018-07-21T00:45:39.007Z,1006.03
2018-07-21T00:46:39.005Z,1006.02
2018-07-21T00:47:39.004Z,1006.01
2018-07-21T00:48:39.007Z,1006.04
2018-07-21T00:49:39.004Z,1006.00
2018-07-21T00:50:39.011Z,1006.03
2018-07-21T00:51:39.009Z,1006.07
2018-07-21T00:52:39.008Z,1006.04
2018-07-21T00:53:39.009Z,1006.06
2018-07-21T00:54:39.010Z,1006.04
2018-07-21T00:55:39.013Z,1006.08
2018-07-21T00:56:39.014Z,1006.09
2018-07-21T00:57:39.014Z,1006.09
2018-07-21T00:58:39.012Z,1006.08
2018-07-21T00:59:39.012Z,1006.06
2018-07-21T01:00:39.012Z,1006.11
2018-07-21T01:01:39.010Z,1006.05
2018-07-21T01:05:39.017Z,1006.06
2018-07-21T01:06:39.013Z,1006.06
2018-07-21T01:07:39.014Z,1006.04
2018-07-21T01:08:39.018Z,1006.05
2018-07-21T01:09:39.018Z,1006.06
2018-07-21T01:10:39.016Z,1006.07
2018-07-21T01:11:39.016Z,1006.04
2018-07-21T01:12:39.017Z,1006.09
2018-07-21T01:13:39.018Z,1006.12
2018-07-21T01:14:39.023Z,1005.98
2018-07-21T01:15:39.024Z,1006.04
2018-07-21T01:16:39.025Z,1006.01
2018-07-21T01:17:39.027Z,1006.02
2018-07-21T01:18:39.020Z,1006.01
2018-07-21T01:19:39.022Z,1006.00
2018-07-21T01:20:39.022Z,1005.96
2018-07-21T01:21:39.022Z,1005.98
2018-07-21T01:22:39.026Z,1005.90
2018-07-21T01:23:39.028Z,1005.90
2018-07-21T01:24:39.026Z,1005.93
2018-07-21T01:25:39.024Z,1005.95
2018-07-21T01:26:39.029Z,1005.92
2018-07-21T01:27:39.030Z,1005.92
2018-07-21T01:28:39.033Z,1005.94
2018-07-21T01:29:39.032Z,1005.99
2018-07-21T01:30:39.027Z,1005.97
2018-07-21T01:31:39.029Z,1005.98
2018-07-21T01:32:39.029Z,1005.97
2018-07-21T01:33:39.029Z,1005.96
2018-07-21T01:34:39.042Z,1005.98
2018-07-21T01:35:39.035Z,1005.99
2018-07-21T01:36:39.037Z,1005.97
2018-07-21T01:37:39.036Z,1005.97
2018-07-21T01:38:39.033Z,1005.99
2018-07-21T01:39:39.033Z,1005.92
2018-07-21T01:40:39.038Z,1005.95
2018-07-21T01:41:39.039Z,1005.93
2018-07-21T01:42:39.034Z,1005.93
2018-07-21T01:43:39.036Z,1005.95
2018-07-21T01:44:39.036Z,1005.96
2018-07-21T01:45:39.035Z,1005.99
2018-07-21T01:46:39.042Z,1005.97
2018-07-21T01:47:39.042Z,1005.97
2018-07-21T01:48:39.043Z,1006.00
2018-07-21T01:49:39.043Z,1006.01
2018-07-21T01:50:39.038Z,1006.04
2018-07-21T01:51:39.039Z,1006.03
2018-07-21T01:52:39.040Z,1006.00
2018-07-21T01:53:39.041Z,1006.00
2018-07-21T01:54:39.046Z,1006.03
2018-07-21T01:55:39.047Z,1006.00
2018-07-21T01:56:39.042Z,1006.04
2018-07-21T01:57:39.043Z,1006.00
2018-07-21T01:58:39.049Z,1006.03
2018-07-21T01:59:39.049Z,1005.98
2018-07-21T02:00:39.050Z,1006.04
2018-07-21T02:01:39.048Z,1005.98
2018-07-21T02:02:39.046Z,1005.94
2018-07-21T02:03:39.046Z,1005.98
2018-07-21T02:04:39.047Z,1005.95
2018-07-21T02:05:39.046Z,1005.99
2018-07-21T02:06:39.053Z,1005.99
2018-07-21T02:07:39.052Z,1006.02
2018-07-21T02:08:39.055Z,1005.97
2018-07-21T02:09:39.053Z,1006.00
2018-07-21T02:10:39.050Z,1005.98
2018-07-21T02:11:39.053Z,1005.97
2018-07-21T02:12:39.085Z,1005.96
2018-07-21T02:13:39.057Z,1005.93
2018-07-21T02:14:39.053Z,1005.93
2018-07-21T02:15:39.052Z,1005.88
2018-07-21T02:16:39.053Z,1005.90
2018-07-21T02:17:39.054Z,1005.91
2018-07-21T02:18:39.058Z,1005.88
2018-07-21T02:19:39.061Z,1005.89
2018-07-21T02:20:39.059Z,1005.87
2018-07-21T02:21:39.059Z,1005.94
2018-07-21T02:22:39.091Z,1005.91
2018-07-21T02:23:39.076Z,1005.91
2018-07-21T02:24:39.059Z,1005.85
2018-07-21T02:25:39.061Z,1005.86
2018-07-21T02:26:39.064Z,1005.82
2018-07-21T02:27:39.064Z,1005.81
2018-07-21T02:28:39.063Z,1005.83
2018-07-21T02:29:39.061Z,1005.80
2018-07-21T02:30:39.066Z,1005.81
2018-07-21T02:31:39.067Z,1005.80
2018-07-21T02:32:39.067Z,1005.82
2018-07-21T02:33:39.067Z,1005.79
2018-07-21T02:34:39.074Z,1005.76
2018-07-21T02:35:39.063Z,1005.76
2018-07-21T02:36:39.065Z,1005.77
2018-07-21T02:37:39.065Z,1005.74
2018-07-21T02:38:39.069Z,1005.76
2018-07-21T02:39:39.076Z,1005.75
2018-07-21T02:40:39.069Z,1005.76
2018-07-21T02:41:39.071Z,1005.83
2018-07-21T02:42:39.066Z,1005.77
2018-07-21T02:43:39.066Z,1005.84
2018-07-21T02:44:39.072Z,1005.85
2018-07-21T02:45:39.206Z,1005.85
2018-07-21T02:46:39.070Z,1005.84
2018-07-21T02:47:39.068Z,1005.86
2018-07-21T02:48:39.070Z,1005.85
2018-07-21T02:49:39.069Z,1005.84
2018-07-21T02:50:39.073Z,1005.84
2018-07-21T02:51:39.077Z,1005.81
2018-07-21T02:52:39.075Z,1005.80
2018-07-21T02:53:39.075Z,1005.79
2018-07-21T02:54:39.070Z,1005.81
2018-07-21T02:55:39.071Z,1005.81
2018-07-21T02:56:39.070Z,1005.82
2018-07-21T02:57:39.074Z,1005.88
2018-07-21T02:58:39.076Z,1005.85
2018-07-21T02:59:39.077Z,1005.88
2018-07-21T03:00:39.072Z,1005.88
2018-07-21T03:01:39.072Z,1005.86
2018-07-21T03:02:39.077Z,1005.93
2018-07-21T03:03:39.076Z,1005.91
2018-07-21T03:04:39.081Z,1005.90
2018-07-21T03:05:39.087Z,1005.95
2018-07-21T03:06:39.072Z,1005.93
2018-07-21T03:07:39.073Z,1005.97
2018-07-21T03:08:39.072Z,1005.94
2018-07-21T03:09:39.074Z,1005.92
2018-07-21T03:10:39.077Z,1005.92
2018-07-21T03:11:39.079Z,1005.87
2018-07-21T03:12:39.078Z,1005.89
2018-07-21T03:13:39.081Z,1005.90
2018-07-21T03:14:39.074Z,1005.91
2018-07-21T03:15:39.073Z,1005.89
2018-07-21T03:16:39.078Z,1005.85
2018-07-21T03:17:39.078Z,1005.88
2018-07-21T03:18:39.073Z,1005.85
2018-07-21T03:19:39.072Z,1005.81
2018-07-21T03:20:39.073Z,1005.77
2018-07-21T03:21:39.073Z,1005.81
2018-07-21T03:22:39.077Z,1005.78
2018-07-21T03:23:39.076Z,1005.80
2018-07-21T03:24:39.077Z,1005.76
2018-07-21T03:25:39.079Z,1005.82
2018-07-21T03:26:39.071Z,1005.81
2018-07-21T03:27:39.076Z,1005.82
2018-07-21T03:28:39.071Z,1005.84
2018-07-21T03:29:39.070Z,1005.83
2018-07-21T03:30:39.100Z,1005.82
2018-07-21T03:31:39.076Z,1005.83
2018-07-21T03:32:39.070Z,1005.80
2018-07-21T03:33:39.069Z,1005.78
2018-07-21T03:34:39.073Z,1005.76
2018-07-21T03:35:39.077Z,1005.80
2018-07-21T03:36:39.083Z,1005.78
2018-07-21T03:37:39.074Z,1005.78
2018-07-21T03:38:39.068Z,1005.79
2018-07-21T03:39:39.068Z,1005.77
2018-07-21T03:40:39.165Z,1005.81
2018-07-21T03:41:39.067Z,1005.82
2018-07-21T03:42:39.071Z,1005.83
2018-07-21T03:43:39.071Z,1005.82
2018-07-21T03:44:39.072Z,1005.79
2018-07-21T03:45:39.072Z,1005.84
2018-07-21T03:46:39.067Z,1005.81
2018-07-21T03:47:39.067Z,1005.80
2018-07-21T03:48:39.072Z,1005.80
2018-07-21T03:49:39.071Z,1005.80
2018-07-21T03:50:39.066Z,1005.77
2018-07-21T03:51:39.065Z,1005.78
2018-07-21T03:52:39.065Z,1005.82
2018-07-21T03:53:39.065Z,1005.81
2018-07-21T03:54:39.069Z,1005.80
2018-07-21T03:55:39.068Z,1005.79
2018-07-21T03:56:39.068Z,1005.81
2018-07-21T03:57:39.067Z,1005.78
2018-07-21T03:58:39.063Z,1005.76
2018-07-21T03:59:39.062Z,1005.79
2018-07-21T04:00:39.106Z,1005.76
2018-07-21T04:01:39.061Z,1005.72
2018-07-21T04:02:39.073Z,1005.67
2018-07-21T04:03:39.067Z,1005.71
2018-07-21T04:04:39.064Z,1005.75
2018-07-21T04:05:39.059Z,1005.73
2018-07-21T04:06:39.064Z,1005.75
2018-07-21T04:07:39.064Z,1005.71
2018-07-21T04:08:39.063Z,1005.71
2018-07-21T04:09:39.064Z,1005.76
2018-07-21T04:10:39.058Z,1005.78
2018-07-21T04:11:39.058Z,1005.84
2018-07-21T04:12:39.057Z,1005.84
2018-07-21T04:13:39.056Z,1005.84
2018-07-21T04:14:39.061Z,1005.88
2018-07-21T04:15:39.060Z,1005.89
2018-07-21T04:16:39.061Z,1005.92
2018-07-21T04:17:39.061Z,1005.89
2018-07-21T04:18:39.055Z,1005.87
2018-07-21T04:19:39.054Z,1005.92
2018-07-21T04:20:39.058Z,1005.89
2018-07-21T04:21:39.058Z,1005.90
2018-07-21T04:22:39.056Z,1005.93
2018-07-21T04:23:39.055Z,1005.95
2018-07-21T04:24:39.053Z,1005.93
2018-07-21T04:25:39.050Z,1005.93
2018-07-21T04:26:39.054Z,1005.93
2018-07-21T04:27:39.054Z,1005.94
2018-07-21T04:28:39.053Z,1005.96
2018-07-21T04:29:39.052Z,1006.00
2018-07-21T04:30:39.047Z,1005.97
2018-07-21T04:31:39.047Z,1005.97
2018-07-21T04:32:39.046Z,1006.00
2018-07-21T04:33:39.046Z,1006.01
2018-07-21T04:34:39.050Z,1005.99
2018-07-21T04:35:39.049Z,1006.03
2018-07-21T04:36:39.044Z,1006.06
2018-07-21T04:37:39.043Z,1006.04
2018-07-21T04:38:39.048Z,1006.03
2018-07-21T04:39:39.049Z,1006.05
2018-07-21T04:40:39.045Z,1006.08
2018-07-21T04:41:39.045Z,1006.06
2018-07-21T04:42:39.040Z,1006.07
2018-07-21T04:43:39.039Z,1006.11
2018-07-21T04:44:39.044Z,1006.09
2018-07-21T04:45:39.042Z,1006.15
2018-07-21T04:46:39.038Z,1006.18
2018-07-21T04:47:39.037Z,1006.17
2018-07-21T04:48:39.037Z,1006.17
2018-07-21T04:49:39.035Z,1006.20
2018-07-21T04:50:39.040Z,1006.26
2018-07-21T04:51:39.039Z,1006.25
2018-07-21T04:52:39.035Z,1006.29
2018-07-21T04:53:39.033Z,1006.34
2018-07-21T04:54:39.046Z,1006.35
2018-07-21T04:55:39.037Z,1006.35
2018-07-21T04:56:39.039Z,1006.36
2018-07-21T04:57:39.037Z,1006.39
2018-07-21T04:58:39.032Z,1006.37
2018-07-21T04:59:39.031Z,1006.36
2018-07-21T05:00:39.117Z,1006.40
2018-07-21T05:01:39.032Z,1006.37
2018-07-21T05:02:39.037Z,1006.40
2018-07-21T05:03:39.037Z,1006.39
2018-07-21T05:04:39.037Z,1006.40
2018-07-21T05:05:39.037Z,1006.42
2018-07-21T05:06:39.032Z,1006.45
2018-07-21T05:07:39.037Z,1006.43
2018-07-21T05:08:39.040Z,1006.41
2018-07-21T05:09:39.039Z,1006.35
2018-07-21T05:10:39.035Z,1006.36
2018-07-21T05:11:39.036Z,1006.33
2018-07-21T05:12:39.038Z,1006.30
2018-07-21T05:13:39.038Z,1006.30
2018-07-21T05:14:39.042Z,1006.34
2018-07-21T05:15:39.047Z,1006.34
2018-07-21T05:16:39.045Z,1006.36
2018-07-21T05:17:39.045Z,1006.39
2018-07-21T05:18:39.041Z,1006.43
2018-07-21T05:19:39.041Z,1006.38
2018-07-21T05:20:39.044Z,1006.41
2018-07-21T05:21:39.042Z,1006.47
2018-07-21T05:22:39.047Z,1006.43
2018-07-21T05:23:39.048Z,1006.49
2018-07-21T05:24:39.045Z,1006.48
2018-07-21T05:25:39.048Z,1006.47
2018-07-21T05:26:39.051Z,1006.49
2018-07-21T05:27:39.052Z,1006.54
2018-07-21T05:28:39.054Z,1006.59
2018-07-21T05:29:39.053Z,1006.66
2018-07-21T05:30:39.050Z,1006.59
2018-07-21T05:31:39.053Z,1006.64
2018-07-21T05:32:39.055Z,1006.62
2018-07-21T05:33:39.057Z,1006.60
2018-07-21T05:34:39.061Z,1006.64
2018-07-21T05:35:39.062Z,1006.70
2018-07-21T05:36:39.065Z,1006.75
2018-07-21T05:37:39.065Z,1006.63
2018-07-21T05:38:39.062Z,1006.67
2018-07-21T05:39:39.064Z,1006.67
2018-07-21T05:40:39.071Z,1006.66
2018-07-21T05:41:39.071Z,1006.68
2018-07-21T05:42:39.070Z,1006.73
2018-07-21T05:43:39.072Z,1006.75
2018-07-21T05:44:39.076Z,1006.75
2018-07-21T05:45:39.077Z,1006.98
2018-07-21T05:46:39.084Z,1007.03
2018-07-21T05:47:39.087Z,1007.09
2018-07-21T05:48:39.087Z,1006.89
2018-07-21T05:49:39.091Z,1006.89
2018-07-21T05:50:39.088Z,1006.91
2018-07-21T05:51:39.090Z,1006.93
2018-07-21T05:52:39.094Z,1006.95
2018-07-21T05:53:39.096Z,1006.94
2018-07-21T05:54:39.155Z,1007.15
2018-07-21T05:55:39.108Z,1007.19
2018-07-21T05:56:39.105Z,1007.29
2018-07-21T05:57:39.108Z,1007.24
2018-07-21T05:58:39.117Z,1007.23
2018-07-21T05:59:39.120Z,1007.21
2018-07-21T06:00:39.123Z,1007.23
2018-07-21T06:01:39.125Z,1007.25
2018-07-21T06:02:39.140Z,1007.05
2018-07-21T06:03:39.130Z,1007.06
2018-07-21T06:04:39.135Z,1006.94
2018-07-21T06:05:39.138Z,1007.03
2018-07-21T06:06:39.149Z,1007.00
2018-07-21T06:07:39.152Z,1006.99
2018-07-21T06:08:39.179Z,1006.99
2018-07-21T06:09:39.161Z,1006.99
2018-07-21T06:10:39.161Z,1007.02
2018-07-21T06:11:39.166Z,1007.22
2018-07-21T06:12:39.176Z,1007.09
2018-07-21T06:13:39.180Z,1007.12
2018-07-21T06:14:39.179Z,1007.11
2018-07-21T06:15:39.184Z,1007.24
2018-07-21T06:16:39.195Z,1007.38
2018-07-21T06:17:39.193Z,1007.23
2018-07-21T06:18:39.229Z,1007.63
2018-07-21T06:19:39.207Z,1007.39
2018-07-21T06:20:39.218Z,1007.57
2018-07-21T06:21:39.217Z,1007.71
2018-07-21T06:22:39.217Z,1007.83
2018-07-21T06:23:39.228Z,1007.75
2018-07-21T06:24:39.228Z,1007.79
2018-07-21T06:25:39.233Z,1007.81
2018-07-21T06:26:39.244Z,1007.90
2018-07-21T06:27:39.251Z,1007.91
2018-07-21T06:28:39.250Z,1007.80
2018-07-21T06:29:39.257Z,1007.78
2018-07-21T06:30:39.268Z,1007.79
2018-07-21T06:31:39.274Z,1007.81
2018-07-21T06:32:39.281Z,1007.49
2018-07-21T06:33:39.289Z,1007.50
2018-07-21T06:34:39.289Z,1007.54
2018-07-21T06:35:39.431Z,1007.81
2018-07-21T06:36:39.305Z,1007.85
2018-07-21T06:37:39.312Z,1007.72
2018-07-21T06:38:39.322Z,1007.68
2018-07-21T06:39:39.329Z,1007.85
2018-07-21T06:40:39.341Z,1007.69
2018-07-21T06:41:39.347Z,1007.88
2018-07-21T06:42:39.348Z,1007.75
2018-07-21T06:43:39.356Z,1007.91
2018-07-21T06:44:39.369Z,1007.95
2018-07-21T06:45:39.376Z,1007.78
2018-07-21T06:46:39.379Z,1007.88
2018-07-21T06:47:39.387Z,1007.94
2018-07-21T06:48:39.394Z,1008.17
2018-07-21T06:49:39.418Z,1007.67
2018-07-21T06:50:39.414Z,1007.74
2018-07-21T06:51:39.422Z,1008.01
2018-07-21T06:52:39.432Z,1007.91
2018-07-21T06:53:39.440Z,1007.75
2018-07-21T06:54:39.443Z,1007.91
2018-07-21T06:55:39.452Z,1007.77
2018-07-21T06:56:39.459Z,1007.87
2018-07-21T06:57:39.467Z,1008.04
2018-07-21T06:58:39.480Z,1007.81
2018-07-21T06:59:39.488Z,1007.95
2018-07-21T07:00:39.492Z,1008.19
2018-07-21T07:01:39.500Z,1008.51
2018-07-21T07:02:39.514Z,1008.56
2018-07-21T07:03:39.521Z,1007.97
2018-07-21T07:04:39.589Z,1007.88
2018-07-21T07:05:39.539Z,1007.99
2018-07-21T07:06:39.542Z,1008.11
2018-07-21T07:07:39.551Z,1008.37
2018-07-21T07:08:39.560Z,1008.47
2018-07-21T07:09:39.567Z,1008.59
2018-07-21T07:10:39.582Z,1008.67
2018-07-21T07:11:39.592Z,1008.70
2018-07-21T07:12:39.600Z,1008.71
2018-07-21T07:13:39.610Z,1008.75
2018-07-21T07:14:39.614Z,1008.75
2018-07-21T07:15:39.625Z,1008.76
2018-07-21T07:16:39.639Z,1008.73
2018-07-21T07:17:39.648Z,1008.70
2018-07-21T07:18:39.658Z,1008.53
2018-07-21T07:19:39.667Z,1008.82
2018-07-21T07:20:39.678Z,1008.67
2018-07-21T07:21:39.688Z,1008.57
2018-07-21T07:22:39.705Z,1008.56
2018-07-21T07:23:39.718Z,1008.73
2018-07-21T07:24:39.729Z,1008.81
2018-07-21T07:25:39.741Z,1008.92
2018-07-21T07:26:39.749Z,1008.88
2018-07-21T07:27:39.760Z,1008.49
2018-07-21T07:28:39.777Z,1008.82
2018-07-21T07:29:39.786Z,1008.83
2018-07-21T07:30:39.802Z,1008.78
2018-07-21T07:31:39.816Z,1008.68
2018-07-21T07:32:39.825Z,1008.73
2018-07-21T07:33:39.841Z,1008.80
2018-07-21T07:34:39.856Z,1008.83
2018-07-21T07:35:39.870Z,1008.87
2018-07-21T07:36:39.885Z,1008.74
2018-07-21T07:37:39.911Z,1008.75
2018-07-21T07:38:39.908Z,1008.60
2018-07-21T07:39:39.922Z,1008.79
2018-07-21T07:40:39.942Z,1008.87
2018-07-21T07:41:39.949Z,1008.87
2018-07-21T07:42:39.970Z,1008.95
2018-07-21T07:43:39.987Z,1008.92
2018-07-21T07:44:39.998Z,1008.95
2018-07-21T07:45:40.016Z,1008.91
2018-07-21T07:46:40.023Z,1008.86
2018-07-21T07:47:40.039Z,1008.45
2018-07-21T07:48:40.058Z,1008.15
2018-07-21T07:49:40.072Z,1008.16
2018-07-21T07:50:40.084Z,1008.15
2018-07-21T07:51:40.103Z,1008.27
2018-07-21T07:52:40.114Z,1008.85
2018-07-21T07:53:40.129Z,1009.03
2018-07-21T07:54:40.149Z,1009.06
2018-07-21T07:55:40.164Z,1008.14
2018-07-21T07:56:40.180Z,1008.10
2018-07-21T07:57:40.192Z,1007.92
2018-07-21T07:58:40.203Z,1007.96
2018-07-21T07:59:40.218Z,1008.07
2018-07-21T08:00:40.236Z,1007.99
2018-07-21T08:01:40.248Z,1008.04
2018-07-21T08:02:40.270Z,1008.09
2018-07-21T08:03:40.285Z,1008.07
2018-07-21T08:04:40.296Z,1008.14
2018-07-21T08:05:40.309Z,1008.09
2018-07-21T08:06:40.329Z,1008.11
2018-07-21T08:07:40.346Z,1008.11
2018-07-21T08:08:40.360Z,1008.12
2018-07-21T08:09:40.375Z,1008.02
2018-07-21T08:10:40.387Z,1007.92
2018-07-21T08:11:40.403Z,1007.89
2018-07-21T08:12:40.418Z,1007.96
2018-07-21T08:13:40.434Z,1007.78
2018-07-21T08:14:40.454Z,1007.86
2018-07-21T08:15:40.470Z,1007.73
2018-07-21T08:16:40.487Z,1007.81
2018-07-21T08:17:40.501Z,1007.75
2018-07-21T08:18:40.512Z,1007.77
2018-07-21T08:19:40.527Z,1007.87
2018-07-21T08:20:40.548Z,1007.85
2018-07-21T08:21:40.563Z,1007.78
2018-07-21T08:22:40.571Z,1007.83
2018-07-21T08:23:40.586Z,1007.83
2018-07-21T08:24:40.600Z,1007.85
2018-07-21T08:25:40.614Z,1007.89
2018-07-21T08:26:40.634Z,1008.01
2018-07-21T08:27:40.648Z,1007.90
2018-07-21T08:28:40.664Z,1007.90
2018-07-21T08:29:40.678Z,1007.94
2018-07-21T08:30:40.689Z,1007.92
2018-07-21T08:31:40.706Z,1007.95
2018-07-21T08:32:40.718Z,1007.95
2018-07-21T08:33:40.731Z,1007.96
2018-07-21T08:34:40.789Z,1007.94
2018-07-21T08:35:40.768Z,1007.93
2018-07-21T08:36:40.779Z,1007.94
2018-07-21T08:37:40.796Z,1007.94
2018-07-21T08:38:40.815Z,1007.91
2018-07-21T08:39:40.831Z,1007.95
2018-07-21T08:40:40.847Z,1007.96
2018-07-21T08:41:40.863Z,1007.94
2018-07-21T08:42:40.875Z,1007.96
2018-07-21T08:43:40.893Z,1007.95
2018-07-21T08:44:40.909Z,1007.95
2018-07-21T08:45:40.926Z,1007.91
2018-07-21T08:46:40.948Z,1007.90
2018-07-21T08:47:40.967Z,1007.94
2018-07-21T08:48:40.985Z,1007.87
2018-07-21T08:49:41.014Z,1007.83
2018-07-21T08:50:41.015Z,1007.90
2018-07-21T08:51:41.036Z,1007.85
2018-07-21T08:52:41.057Z,1007.87
2018-07-21T08:53:41.075Z,1007.83
2018-07-21T08:54:41.088Z,1007.83
2018-07-21T08:55:41.159Z,1007.84
2018-07-21T08:56:41.125Z,1007.87
2018-07-21T08:57:41.145Z,1007.90
2018-07-21T08:58:41.166Z,1007.91
2018-07-21T08:59:41.188Z,1007.91
2018-07-21T09:00:41.205Z,1007.89
2018-07-21T09:01:41.224Z,1007.92
2018-07-21T09:02:41.238Z,1007.89
2018-07-21T09:03:41.258Z,1007.87
2018-07-21T09:04:41.278Z,1007.84
2018-07-21T09:05:41.347Z,1007.88
2018-07-21T09:06:41.323Z,1007.83
2018-07-21T09:07:41.341Z,1007.85
2018-07-21T09:08:41.355Z,1007.86
2018-07-21T09:09:41.373Z,1007.85
2018-07-21T09:10:41.399Z,1007.86
2018-07-21T09:11:41.418Z,1007.83
2018-07-21T09:12:41.442Z,1007.80
2018-07-21T09:13:41.456Z,1007.75
2018-07-21T09:14:41.472Z,1007.80
2018-07-21T09:15:41.492Z,1007.79
2018-07-21T09:16:41.517Z,1007.78
2018-07-21T09:17:41.536Z,1007.82
2018-07-21T09:18:41.557Z,1007.80
2018-07-21T09:19:41.578Z,1007.81
2018-07-21T09:20:41.600Z,1007.83
2018-07-21T09:21:41.621Z,1007.81
2018-07-21T09:22:41.634Z,1007.83
2018-07-21T09:23:41.656Z,1007.82
2018-07-21T09:24:41.682Z,1007.84
2018-07-21T09:25:41.702Z,1007.81
2018-07-21T09:26:41.720Z,1007.82
2018-07-21T09:27:41.739Z,1007.77
2018-07-21T09:28:41.760Z,1007.79
2018-07-21T09:29:41.778Z,1007.80
2018-07-21T09:30:41.804Z,1007.80
2018-07-21T09:31:41.825Z,1007.82
2018-07-21T09:32:41.845Z,1007.81
2018-07-21T09:33:41.865Z,1007.77
2018-07-21T09:34:41.886Z,1007.78
2018-07-21T09:35:41.906Z,1007.85
2018-07-21T09:36:41.925Z,1007.82
2018-07-21T09:37:41.946Z,1007.82
2018-07-21T09:38:41.971Z,1007.82
2018-07-21T09:39:41.992Z,1007.85
2018-07-21T09:40:42.008Z,1007.79
2018-07-21T09:41:42.029Z,1007.79
2018-07-21T09:42:42.055Z,1007.83
2018-07-21T09:43:42.076Z,1007.82
2018-07-21T09:44:42.096Z,1007.86
2018-07-21T09:45:42.121Z,1007.83
2018-07-21T09:46:42.135Z,1007.84
2018-07-21T09:47:42.154Z,1007.84
2018-07-21T09:48:42.176Z,1007.84
2018-07-21T09:49:42.196Z,1007.81
2018-07-21T09:50:42.221Z,1007.79
2018-07-21T09:51:42.243Z,1007.73
2018-07-21T09:52:42.265Z,1007.75
2018-07-21T09:53:42.286Z,1007.77
2018-07-21T09:54:42.302Z,1007.74
2018-07-21T09:55:42.387Z,1007.75
2018-07-21T09:56:42.349Z,1007.80
2018-07-21T09:57:42.368Z,1007.81
2018-07-21T09:58:42.384Z,1007.81
2018-07-21T09:59:42.407Z,1007.79
2018-07-21T10:00:42.425Z,1007.78
2018-07-21T10:01:42.448Z,1007.81
2018-07-21T10:02:42.472Z,1007.78
2018-07-21T10:03:42.493Z,1007.81
2018-07-21T10:04:42.515Z,1007.78
2018-07-21T10:05:42.535Z,1007.79
2018-07-21T10:06:42.552Z,1007.81
2018-07-21T10:07:42.571Z,1007.81
2018-07-21T10:08:42.593Z,1007.79
2018-07-21T10:09:42.613Z,1007.79
2018-07-21T10:10:42.637Z,1007.76
2018-07-21T10:11:42.661Z,1007.76
2018-07-21T10:12:42.676Z,1007.77
2018-07-21T10:13:42.695Z,1007.81
2018-07-21T10:14:42.723Z,1007.70
2018-07-21T10:15:42.742Z,1007.73
2018-07-21T10:16:42.766Z,1007.74
2018-07-21T10:17:42.791Z,1007.73
2018-07-21T10:18:42.801Z,1007.71
2018-07-21T10:19:42.823Z,1007.69
2018-07-21T10:20:42.845Z,1007.67
2018-07-21T10:21:42.866Z,1007.70
2018-07-21T10:22:42.893Z,1007.64
2018-07-21T10:23:42.914Z,1007.67
2018-07-21T10:24:42.933Z,1007.64
2018-07-21T10:25:42.955Z,1007.63
2018-07-21T10:26:42.971Z,1007.64
2018-07-21T10:27:42.997Z,1007.65
2018-07-21T10:28:43.020Z,1007.69
2018-07-21T10:29:43.040Z,1007.68
2018-07-21T10:30:43.059Z,1007.67
2018-07-21T10:31:43.079Z,1007.70
2018-07-21T10:32:43.102Z,1007.70
2018-07-21T10:33:43.123Z,1007.72
2018-07-21T10:34:43.148Z,1007.75
2018-07-21T10:35:43.172Z,1007.74
2018-07-21T10:36:43.193Z,1007.70
2018-07-21T10:37:43.214Z,1007.71
2018-07-21T10:38:43.231Z,1007.72
2018-07-21T10:39:43.254Z,1007.64
2018-07-21T10:40:43.274Z,1007.67
2018-07-21T10:41:43.295Z,1007.66
2018-07-21T10:42:43.322Z,1007.65
2018-07-21T10:43:43.346Z,1007.66
2018-07-21T10:44:43.363Z,1007.66
2018-07-21T10:45:43.384Z,1007.68
2018-07-21T10:46:43.411Z,1007.65
2018-07-21T10:47:43.433Z,1007.63
2018-07-21T10:48:43.456Z,1007.64
2018-07-21T10:49:43.478Z,1007.63
2018-07-21T10:50:43.544Z,1007.66
2018-07-21T10:51:43.516Z,1007.65
2018-07-21T10:52:43.538Z,1007.66
2018-07-21T10:53:43.559Z,1007.65
2018-07-21T10:54:43.586Z,1007.69
2018-07-21T10:55:43.611Z,1007.69
2018-07-21T10:56:43.628Z,1007.69
2018-07-21T10:57:43.650Z,1007.63
2018-07-21T10:58:43.666Z,1007.66
2018-07-21T10:59:43.689Z,1007.64
2018-07-21T11:00:43.715Z,1007.64
2018-07-21T11:01:43.735Z,1007.66
2018-07-21T11:02:43.751Z,1007.65
2018-07-21T11:03:43.772Z,1007.66
2018-07-21T11:04:43.793Z,1007.68
2018-07-21T11:05:43.813Z,1007.66
2018-07-21T11:06:43.840Z,1007.70
2018-07-21T11:07:43.860Z,1007.69
2018-07-21T11:08:43.879Z,1007.67
2018-07-21T11:09:43.899Z,1007.63
2018-07-21T11:10:43.918Z,1007.65
2018-07-21T11:11:43.936Z,1007.61
2018-07-21T11:12:43.956Z,1007.61
2018-07-21T11:13:43.976Z,1007.54
2018-07-21T11:14:44.000Z,1007.59
2018-07-21T11:15:44.020Z,1007.59
2018-07-21T11:16:44.035Z,1007.54
2018-07-21T11:17:44.054Z,1007.55
2018-07-21T11:18:44.079Z,1007.53
2018-07-21T11:19:44.102Z,1007.58
2018-07-21T11:20:44.117Z,1007.57
2018-07-21T11:21:44.134Z,1007.56
2018-07-21T11:22:44.152Z,1007.53
2018-07-21T11:23:44.170Z,1007.51
2018-07-21T11:24:44.189Z,1007.45
2018-07-21T11:25:44.207Z,1007.42
2018-07-21T11:26:44.232Z,1007.38
2018-07-21T11:27:44.249Z,1007.32
2018-07-21T11:28:44.270Z,1007.31
2018-07-21T11:29:44.287Z,1007.24
2018-07-21T11:30:44.301Z,1007.27
2018-07-21T11:31:44.318Z,1007.22
2018-07-21T11:32:44.342Z,1007.20
2018-07-21T11:33:44.358Z,1007.21
2018-07-21T11:34:44.372Z,1007.19
2018-07-21T11:35:44.501Z,1007.21
2018-07-21T11:36:44.405Z,1007.16
2018-07-21T11:37:44.420Z,1007.19
2018-07-21T11:38:44.442Z,1007.13
2018-07-21T11:39:44.457Z,1007.16
2018-07-21T11:40:44.472Z,1007.18
2018-07-21T11:41:44.486Z,1007.16
2018-07-21T11:42:44.500Z,1007.18
2018-07-21T11:43:44.512Z,1007.18
2018-07-21T11:44:44.529Z,1007.14
2018-07-21T11:45:44.541Z,1007.12
2018-07-21T11:46:44.561Z,1007.17
2018-07-21T11:47:44.573Z,1007.12
2018-07-21T11:48:44.585Z,1007.12
2018-07-21T11:49:44.597Z,1007.14
2018-07-21T11:50:44.615Z,1007.13
2018-07-21T11:51:44.630Z,1007.10
2018-07-21T11:52:44.640Z,1007.09
2018-07-21T11:53:44.656Z,1007.09
2018-07-21T11:54:44.662Z,1007.07
2018-07-21T11:55:44.674Z,1007.04
2018-07-21T11:56:44.687Z,1007.10
2018-07-21T11:57:44.707Z,1007.09
2018-07-21T11:58:44.717Z,1007.08
2018-07-21T11:59:44.728Z,1007.05
2018-07-21T12:00:44.741Z,1007.02
2018-07-21T12:01:44.773Z,1007.05
2018-07-21T12:02:44.761Z,1007.06
2018-07-21T12:03:44.775Z,1007.01
2018-07-21T12:04:44.790Z,1007.03
2018-07-21T12:05:44.842Z,1007.06
2018-07-21T12:06:44.808Z,1007.04
2018-07-21T12:07:44.819Z,1007.00
2018-07-21T12:08:44.831Z,1007.03